Time;durP1;ratioP1;P1;durP2;ratioP2;P2;SDS_P1;SDS_P2;PMS_P1;PMS_P2;Temp;Humidity;BMP_temperature;BMP_pressure;BME280_temperature;BME280_humidity;BME280_pressure;Samples;Min_cycle;Max_cycle;Signal;HPM_P1;HPM_P2
2022/09/25 00:01:31;;;;;;;;;0.00;0.00;;;;;13.97;74.54;100384.84;5038706;28;46023;-69
2022/09/25 00:03:57;;;;;;;;;0.00;0.00;;;;;13.98;73.82;100390.97;5020824;28;45506;-70
2022/09/25 00:06:25;;;;;;;;;0.00;0.00;;;;;14.10;74.18;100407.75;5037983;28;45364;-69
2022/09/25 00:08:51;;;;;;;;;0.00;0.00;;;;;14.10;74.12;100406.88;5038986;28;45227;-69
2022/09/25 00:11:20;;;;;;;;;0.00;0.00;;;;;14.10;74.24;100405.13;5038414;28;46641;-68
2022/09/25 00:13:46;;;;;;;;;0.00;0.00;;;;;14.08;74.00;100401.59;5038446;28;45349;-69
2022/09/25 00:16:16;;;;;;;;;0.00;0.00;;;;;14.09;74.69;100410.38;5038894;28;45407;-72
2022/09/25 00:21:29;;;;;;;;;0.00;0.00;;;;;14.03;75.54;100394.53;5038397;28;45706;-73
2022/09/25 00:23:59;;;;;;;;;0.00;0.00;;;;;14.02;75.82;100390.13;5038117;28;45559;-76
2022/09/25 00:26:27;;;;;;;;;0.00;0.00;;;;;14.03;75.34;100395.41;5038287;28;45383;-72
2022/09/25 00:28:54;;;;;;;;;0.00;0.00;;;;;13.56;75.63;100308.13;5038302;28;45343;-72
2022/09/25 00:31:24;;;;;;;;;0.00;0.00;;;;;14.09;75.69;100410.38;5037786;28;45506;-72
2022/09/25 00:33:50;;;;;;;;;0.00;0.00;;;;;14.01;75.73;100391.03;5038108;28;45511;-72
2022/09/25 00:36:17;;;;;;;;;1.00;0.00;;;;;14.08;75.66;100401.59;5020623;28;45393;-73
2022/09/25 00:38:45;;;;;;;;;0.00;0.00;;;;;14.02;76.07;100387.50;5038670;28;45372;-73
2022/09/25 00:41:10;;;;;;;;;0.00;0.00;;;;;14.08;75.69;100391.09;5037969;28;45520;-73
2022/09/25 00:43:36;;;;;;;;;0.00;0.00;;;;;14.12;75.98;100407.78;5038053;28;45498;-72
2022/09/25 00:46:07;;;;;;;;;0.00;0.00;;;;;14.07;76.26;100383.22;5038194;28;45403;-69
2022/09/25 00:48:33;;;;;;;;;0.00;0.00;;;;;14.07;76.48;100365.72;5020591;28;45331;-69
2022/09/25 00:51:00;;;;;;;;;0.00;0.00;;;;;14.17;76.44;100378.97;5019877;28;45682;-69
2022/09/25 00:53:37;;;;;;;;;0.00;0.00;;;;;14.13;76.28;100371.03;5036725;28;45362;-69
2022/09/25 00:56:04;;;;;;;;;0.00;0.00;;;;;14.18;75.50;100375.47;5038112;28;45346;-69
2022/09/25 00:58:33;;;;;;;;;0.00;0.00;;;;;14.16;75.80;100371.94;5038116;28;45353;-69
2022/09/25 01:00:59;;;;;;;;;0.00;0.00;;;;;14.04;76.22;100356.91;5020085;28;46311;-72
2022/09/25 01:03:26;;;;;;;;;0.00;0.00;;;;;13.90;76.76;100343.59;5037690;28;45275;-69
2022/09/25 01:05:53;;;;;;;;;1.00;1.00;;;;;13.97;77.11;100349.81;5037961;28;45315;-69
2022/09/25 01:08:24;;;;;;;;;0.00;0.00;;;;;13.86;76.25;100328.66;5038204;28;45799;-70
2022/09/25 01:10:50;;;;;;;;;1.00;1.00;;;;;13.90;75.83;100333.94;5036093;28;46678;-71
2022/09/25 01:13:17;;;;;;;;;1.00;0.67;;;;;13.92;75.90;100340.09;5037388;28;45332;-72
2022/09/25 01:15:57;;;;;;;;;0.00;0.00;;;;;13.92;76.26;100347.13;5037722;28;45551;-72
2022/09/25 01:18:23;;;;;;;;;0.00;0.00;;;;;13.87;76.17;100336.56;5038059;28;45192;-73
2022/09/25 01:21:06;;;;;;;;;0.00;0.00;;;;;13.81;75.94;100328.59;5037553;28;46137;-72
2022/09/25 01:24:00;;;;;;;;;0.00;0.00;;;;;13.75;76.21;100325.00;5037439;28;45565;-72
2022/09/25 01:26:56;;;;;;;;;0.33;0.33;;;;;13.68;76.53;100319.66;4999022;28;45362;-73
2022/09/25 01:29:22;;;;;;;;;0.00;0.00;;;;;13.62;76.74;100318.72;5037691;28;45344;-72
2022/09/25 01:32:22;;;;;;;;;0.00;0.00;;;;;13.49;77.33;100309.78;5037505;28;45667;-75
2022/09/25 01:35:18;;;;;;;;;0.00;0.00;;;;;13.46;77.11;100305.34;5037892;28;45412;-73
2022/09/25 01:37:55;;;;;;;;;0.00;0.00;;;;;13.32;78.22;100301.66;5036196;28;45302;-72
2022/09/25 01:40:21;;;;;;;;;2.00;0.00;;;;;13.29;77.94;100299.88;5028064;28;46326;-69
2022/09/25 01:43:04;;;;;;;;;0.00;0.00;;;;;13.25;78.13;100303.28;5022983;28;45765;-71
2022/09/25 01:45:52;;;;;;;;;0.00;0.00;;;;;13.23;78.04;100301.47;5023763;28;45456;-73
2022/09/25 01:48:24;;;;;;;;;0.67;0.67;;;;;13.16;78.25;100295.28;5026276;28;45411;-68
2022/09/25 01:50:57;;;;;;;;;0.00;0.00;;;;;12.99;78.82;100276.66;5024165;28;45464;-68
2022/09/25 01:53:32;;;;;;;;;1.00;0.00;;;;;12.92;79.02;100275.66;5025226;28;46250;-69
2022/09/25 01:56:07;;;;;;;;;0.00;0.00;;;;;13.00;78.78;100304.63;5025666;28;45364;-69
2022/09/25 01:58:45;;;;;;;;;0.00;0.00;;;;;12.97;79.22;100308.94;5024463;28;45381;-69
2022/09/25 02:01:21;;;;;;;;;0.00;0.00;;;;;12.80;78.42;100285.97;5023692;28;45328;-71
2022/09/25 02:04:02;;;;;;;;;0.00;0.00;;;;;12.84;78.04;100287.78;5016671;28;45435;-70
2022/09/25 02:06:31;;;;;;;;;0.33;0.33;;;;;12.84;78.55;100298.25;5021305;28;45490;-70
2022/09/25 02:09:05;;;;;;;;;1.33;1.00;;;;;12.90;78.49;100319.31;5036267;28;45720;-71
2022/09/25 02:11:39;;;;;;;;;1.00;1.00;;;;;12.95;78.74;100327.25;5036914;28;45331;-70
2022/09/25 02:14:45;;;;;;;;;0.33;0.33;;;;;13.04;78.78;100326.56;5018666;28;45476;-68
2022/09/25 02:20:30;;;;;;;;;0.33;0.33;;;;;13.03;78.61;100303.78;5036674;28;45407;-70
2022/09/25 02:22:50;;;;;;;;;2.00;0.67;;;;;13.27;77.76;100330.44;5036643;28;45475;-70
2022/09/25 02:25:41;;;;;;;;;0.00;0.00;;;;;13.36;77.39;100331.47;5034894;28;45335;-70
2022/09/25 02:28:07;;;;;;;;;1.00;1.00;;;;;13.16;77.17;100289.16;5035643;28;45529;-68
2022/09/25 02:30:33;;;;;;;;;1.00;0.00;;;;;13.35;77.11;100312.22;5025776;28;45327;-71
2022/09/25 02:32:58;;;;;;;;;1.00;0.00;;;;;13.37;77.04;100305.25;5038892;28;45393;-71
2022/09/25 02:35:27;;;;;;;;;0.00;0.00;;;;;13.40;76.91;100315.78;5040040;28;46024;-69
2022/09/25 02:37:55;;;;;;;;;1.00;1.00;;;;;13.33;77.28;100306.06;5040373;28;45216;-71
2022/09/25 02:40:31;;;;;;;;;0.00;0.00;;;;;13.42;77.21;100313.19;5040621;28;45402;-72
2022/09/25 02:43:44;;;;;;;;;1.00;1.00;;;;;13.39;77.44;100314.03;5040195;28;45398;-70
2022/09/25 02:46:10;;;;;;;;;0.00;0.00;;;;;13.36;77.48;100316.59;5022858;28;45560;-71
2022/09/25 02:48:42;;;;;;;;;0.67;0.67;;;;;13.18;77.66;100274.31;5038576;28;45427;-69
2022/09/25 02:51:35;;;;;;;;;0.00;0.00;;;;;13.31;76.89;100295.53;5039936;28;45961;-71
2022/09/25 02:54:09;;;;;;;;;1.33;0.67;;;;;12.95;77.11;100230.25;5040128;28;45382;-71
2022/09/25 02:56:45;;;;;;;;;0.67;0.33;;;;;13.42;77.15;100300.06;5038380;28;46710;-69
2022/09/25 02:59:24;;;;;;;;;0.33;0.33;;;;;13.31;77.04;100278.94;5039798;28;45456;-71
2022/09/25 03:01:51;;;;;;;;;1.00;1.00;;;;;13.33;77.00;100288.56;5040233;28;45939;-69
2022/09/25 03:04:18;;;;;;;;;1.00;1.00;;;;;13.40;77.36;100299.16;5039826;28;45295;-68
2022/09/25 03:06:45;;;;;;;;;0.00;0.00;;;;;13.32;77.50;100286.78;5039641;28;46089;-68
2022/09/25 03:09:14;;;;;;;;;1.00;1.00;;;;;13.29;77.98;100270.09;5039762;28;45236;-68
2022/09/25 03:11:41;;;;;;;;;1.00;0.00;;;;;13.25;77.46;100256.06;5039795;28;45557;-68
2022/09/25 03:14:06;;;;;;;;;1.00;1.00;;;;;13.35;77.96;100285.06;5039684;28;45390;-68
2022/09/25 03:16:33;;;;;;;;;0.00;0.00;;;;;13.32;78.23;100292.03;5039304;28;45447;-68
2022/09/25 03:18:59;;;;;;;;;1.00;1.00;;;;;13.22;78.22;100284.88;5039488;28;45429;-71
2022/09/25 03:21:24;;;;;;;;;1.00;1.00;;;;;13.25;78.02;100289.25;5039636;28;45462;-70
2022/09/25 03:23:50;;;;;;;;;0.00;0.00;;;;;13.24;77.83;100288.38;5039519;28;45379;-71
2022/09/25 03:26:15;;;;;;;;;0.00;0.00;;;;;13.12;77.55;100269.84;5037868;28;46768;-71
2022/09/25 03:28:41;;;;;;;;;1.00;1.00;;;;;13.12;77.31;100269.84;5054702;28;45372;-71
2022/09/25 03:31:09;;;;;;;;;1.00;1.00;;;;;13.05;77.70;100265.38;5039347;28;45561;-69
2022/09/25 03:33:37;;;;;;;;;0.00;0.00;;;;;13.11;77.53;100286.44;5038271;28;45397;-72
2022/09/25 03:36:10;;;;;;;;;0.00;0.00;;;;;13.03;78.11;100282.81;5039110;28;45397;-71
2022/09/25 03:38:37;;;;;;;;;1.00;0.33;;;;;13.00;77.47;100288.03;5039165;28;45335;-71
2022/09/25 03:41:05;;;;;;;;;1.00;1.00;;;;;12.97;77.46;100280.09;5037923;28;45416;-72
2022/09/25 03:43:32;;;;;;;;;0.00;0.00;;;;;12.70;77.97;100255.22;5039392;28;45376;-71
2022/09/25 03:45:58;;;;;;;;;0.00;0.00;;;;;12.82;77.98;100279.00;5039058;28;45992;-69
2022/09/25 03:48:23;;;;;;;;;0.00;0.00;;;;;12.76;78.65;100281.53;5021331;28;45320;-71
2022/09/25 03:50:49;;;;;;;;;0.33;0.00;;;;;12.77;78.33;100291.13;5039230;28;45218;-71
2022/09/25 03:53:17;;;;;;;;;2.00;0.00;;;;;12.64;78.92;100276.94;5021343;28;45502;-72
2022/09/25 03:55:45;;;;;;;;;0.00;0.00;;;;;12.59;78.75;100280.34;5038806;28;46312;-71
2022/09/25 03:58:13;;;;;;;;;0.00;0.00;;;;;12.53;78.36;100278.50;5038844;28;45475;-71
2022/09/25 04:00:40;;;;;;;;;1.00;1.00;;;;;12.49;78.66;100274.97;5038711;28;45473;-71
2022/09/25 04:03:05;;;;;;;;;1.00;1.00;;;;;12.46;78.42;100274.00;5038607;28;45477;-69
2022/09/25 04:05:31;;;;;;;;;0.67;0.67;;;;;12.34;78.71;100253.72;5038597;28;46226;-70
2022/09/25 04:07:56;;;;;;;;;0.33;0.33;;;;;12.46;79.00;100285.38;5021130;28;45573;-69
2022/09/25 04:10:22;;;;;;;;;1.00;1.00;;;;;12.42;78.80;100283.56;5038864;28;45391;-68
2022/09/25 04:12:54;;;;;;;;;0.00;0.00;;;;;12.29;78.50;100268.47;5038936;28;45368;-68
2022/09/25 04:15:24;;;;;;;;;0.67;0.67;;;;;12.37;78.71;100284.31;5038590;28;45649;-69
2022/09/25 04:17:51;;;;;;;;;1.00;1.00;;;;;12.21;78.54;100264.81;5020575;28;45728;-68
2022/09/25 04:20:18;;;;;;;;;1.00;0.00;;;;;12.21;79.55;100280.53;5038572;28;46033;-68
2022/09/25 04:22:44;;;;;;;;;1.00;1.00;;;;;12.04;79.46;100252.28;5038495;28;45245;-68
2022/09/25 04:25:10;;;;;;;;;0.67;0.67;;;;;12.22;79.26;100282.31;5036923;28;45362;-68
2022/09/25 04:27:36;;;;;;;;;1.00;1.00;;;;;12.04;79.53;100254.91;5038232;28;45530;-68
2022/09/25 04:30:04;;;;;;;;;0.00;0.00;;;;;12.09;80.08;100279.44;5038214;28;45317;-68
2022/09/25 04:35:13;;;;;;;;;1.33;0.00;;;;;11.90;80.29;100272.97;5038074;28;45442;-71
2022/09/25 04:37:39;;;;;;;;;1.00;1.00;;;;;11.91;80.25;100279.94;5037753;28;45313;-71
2022/09/25 04:40:05;;;;;;;;;0.00;0.00;;;;;11.73;80.51;100259.47;5038286;28;45438;-72
2022/09/25 04:42:30;;;;;;;;;1.00;1.00;;;;;11.81;80.26;100275.34;5038503;28;45452;-70
2022/09/25 04:44:56;;;;;;;;;0.67;0.67;;;;;11.85;80.40;100286.78;5038086;28;45283;-71
2022/09/25 04:47:24;;;;;;;;;0.67;0.00;;;;;11.78;79.76;100271.78;5038113;28;45519;-71
2022/09/25 04:49:50;;;;;;;;;0.00;0.00;;;;;11.67;79.88;100243.66;5037932;28;45458;-71
2022/09/25 04:52:17;;;;;;;;;0.00;0.00;;;;;11.79;79.68;100263.09;5019900;28;45616;-68
2022/09/25 04:54:43;;;;;;;;;1.00;1.00;;;;;11.73;79.75;100259.47;5038013;28;45612;-71
2022/09/25 04:57:13;;;;;;;;;2.00;2.00;;;;;11.77;79.40;100267.41;5037969;28;45506;-68
2022/09/25 04:59:39;;;;;;;;;0.33;0.00;;;;;11.64;79.73;100250.56;5038128;28;45420;-71
2022/09/25 05:02:05;;;;;;;;;1.00;1.00;;;;;11.58;79.95;100251.34;5038372;28;45332;-71
2022/09/25 05:04:31;;;;;;;;;1.33;1.00;;;;;11.67;79.46;100275.06;5037860;28;45485;-68
2022/09/25 05:06:56;;;;;;;;;2.00;2.00;;;;;11.68;80.16;100287.31;5037755;28;45348;-68
2022/09/25 05:09:22;;;;;;;;;2.00;2.00;;;;;11.64;80.63;100282.84;5037988;28;45408;-68
2022/09/25 05:11:47;;;;;;;;;1.00;1.00;;;;;11.41;80.45;100250.09;5037878;28;45482;-68
2022/09/25 05:14:13;;;;;;;;;3.50;3.50;;;;;11.62;80.97;100292.41;5037484;28;46367;-68
2022/09/25 05:16:38;;;;;;;;;3.00;1.00;;;;;11.53;80.43;100279.13;5019633;28;45506;-68
2022/09/25 05:19:04;;;;;;;;;2.67;1.00;;;;;11.41;80.65;100261.44;5037769;28;45420;-70
2022/09/25 05:21:31;;;;;;;;;1.00;1.00;;;;;11.47;80.26;100272.00;5038049;28;45426;-71
2022/09/25 05:23:57;;;;;;;;;0.33;0.33;;;;;11.50;80.29;100271.22;5037418;28;45638;-72
2022/09/25 05:26:22;;;;;;;;;0.00;0.00;;;;;11.41;80.15;100263.16;5037589;28;45419;-72
2022/09/25 05:28:49;;;;;;;;;0.25;0.25;;;;;11.36;80.09;100257.84;5037761;28;45343;-71
2022/09/25 05:31:15;;;;;;;;;1.00;0.33;;;;;11.43;80.06;100279.78;5037814;28;45416;-71
2022/09/25 05:33:42;;;;;;;;;1.00;0.33;;;;;11.22;79.89;100234.00;5037211;28;46290;-71
2022/09/25 05:36:09;;;;;;;;;1.33;1.00;;;;;11.31;80.12;100262.94;5037209;28;45560;-70
2022/09/25 05:38:36;;;;;;;;;2.00;2.00;;;;;11.46;80.42;100285.06;5037299;28;45404;-69
2022/09/25 05:41:09;;;;;;;;;0.50;0.50;;;;;11.38;80.25;100274.44;5019967;28;45343;-71
2022/09/25 05:43:40;;;;;;;;;1.00;1.00;;;;;11.45;80.33;100291.16;5037036;28;45537;-68
2022/09/25 05:46:05;;;;;;;;;1.00;1.00;;;;;11.35;80.94;100283.09;5037090;28;45493;-68
2022/09/25 05:48:31;;;;;;;;;1.50;1.50;;;;;11.28;81.06;100275.06;5019559;28;45535;-68
2022/09/25 05:50:57;;;;;;;;;1.67;1.00;;;;;11.34;80.89;100283.06;5037509;28;45265;-68
2022/09/25 05:53:24;;;;;;;;;3.25;2.50;;;;;11.36;80.65;100289.22;5037113;28;46657;-68
2022/09/25 05:55:57;;;;;;;;;3.75;3.75;;;;;11.27;81.20;100274.19;5036802;28;45455;-68
2022/09/25 05:58:27;;;;;;;;;1.25;1.25;;;;;11.37;80.71;100284.88;5036896;28;45640;-68
2022/09/25 06:00:54;;;;;;;;;1.00;1.00;;;;;11.38;81.01;100295.38;5037269;28;45358;-68
2022/09/25 06:03:20;;;;;;;;;1.00;1.00;;;;;11.40;80.81;100300.63;5036153;28;45459;-71
2022/09/25 06:05:46;;;;;;;;;2.00;2.00;;;;;11.37;80.93;100295.34;5036649;28;45414;-70
2022/09/25 06:08:12;;;;;;;;;1.00;1.00;;;;;11.33;80.42;100295.25;5037022;28;45482;-71
2022/09/25 06:10:39;;;;;;;;;0.00;0.00;;;;;11.46;80.26;100314.72;5037079;28;45533;-71
2022/09/25 06:13:05;;;;;;;;;1.00;1.00;;;;;11.42;80.08;100293.69;5034612;28;46626;-69
2022/09/25 06:15:36;;;;;;;;;2.00;2.00;;;;;11.41;80.35;100291.94;5027098;28;45313;-71
2022/09/25 06:18:06;;;;;;;;;1.00;1.00;;;;;11.55;80.74;100320.16;5026169;28;45389;-71
2022/09/25 06:20:32;;;;;;;;;1.00;1.00;;;;;11.58;80.33;100316.75;5007602;28;45516;-70
2022/09/25 06:22:59;;;;;;;;;1.75;1.00;;;;;11.62;79.54;100318.56;5026548;28;45642;-67
2022/09/25 06:25:31;;;;;;;;;1.00;1.00;;;;;11.71;78.97;100333.59;5026206;28;45446;-68
2022/09/25 06:27:59;;;;;;;;;0.33;0.33;;;;;11.77;78.10;100336.31;5022292;28;45543;-67
2022/09/25 06:30:33;;;;;;;;;1.00;1.00;;;;;11.80;77.71;100340.75;5029612;28;45459;-67
2022/09/25 06:33:08;;;;;;;;;1.00;0.00;;;;;11.69;77.44;100314.34;5048471;28;45489;-67
2022/09/25 06:35:35;;;;;;;;;1.00;1.00;;;;;11.86;77.85;100340.91;5036153;28;45233;-70
2022/09/25 06:38:02;;;;;;;;;1.00;1.00;;;;;11.93;77.99;100333.22;5035915;28;45337;-67
2022/09/25 06:40:30;;;;;;;;;1.75;1.75;;;;;12.08;78.24;100343.13;5032657;28;45795;-69
2022/09/25 06:43:02;;;;;;;;;9.25;5.50;;;;;12.28;77.44;100350.53;5034409;28;46366;-66
2022/09/25 06:45:31;;;;;;;;;3.50;2.75;;;;;12.39;77.55;100340.25;5032955;28;45502;-68
2022/09/25 06:48:02;;;;;;;;;3.00;2.67;;;;;12.43;77.34;100335.06;5033798;28;45398;-67
2022/09/25 06:50:41;;;;;;;;;1.00;1.00;;;;;12.43;77.11;100329.84;5035420;28;45527;-68
2022/09/25 06:53:07;;;;;;;;;1.00;0.67;;;;;12.50;77.02;100329.09;5034099;28;45851;-67
2022/09/25 06:55:36;;;;;;;;;1.00;1.00;;;;;12.47;76.59;100320.31;5050941;28;45359;-68
2022/09/25 06:58:03;;;;;;;;;1.00;1.00;;;;;12.64;76.30;100337.22;5035613;28;45928;-67
2022/09/25 07:00:29;;;;;;;;;1.33;1.00;;;;;12.94;76.16;100349.97;5033929;28;45916;-67
2022/09/25 07:05:44;;;;;;;;;1.00;1.00;;;;;16.25;66.11;100315.72;5034156;28;45446;-67
2022/09/25 07:08:14;;;;;;;;;1.00;1.00;;;;;16.32;65.89;100317.53;5034204;28;45474;-68
2022/09/25 07:10:47;;;;;;;;;1.00;1.00;;;;;18.81;62.26;100316.16;5049894;28;45645;-69
2022/09/25 07:13:12;;;;;;;;;0.33;0.00;;;;;21.16;56.28;100310.66;5032585;28;45551;-69
2022/09/25 07:15:38;;;;;;;;;0.67;0.00;;;;;22.80;49.18;100274.50;5035832;28;45523;-68
2022/09/25 07:18:03;;;;;;;;;0.00;0.00;;;;;24.05;48.97;100278.28;5037507;28;45315;-70
2022/09/25 07:20:29;;;;;;;;;0.67;0.33;;;;;25.42;45.23;100297.91;5038171;28;45592;-70
2022/09/25 07:23:00;;;;;;;;;0.00;0.00;;;;;26.63;42.37;100288.03;5037811;28;45594;-71
2022/09/25 07:25:25;;;;;;;;;0.00;0.00;;;;;27.64;40.02;100284.66;5038274;28;45494;-70
2022/09/25 07:27:51;;;;;;;;;1.00;1.00;;;;;28.50;36.34;100300.38;5037880;28;45387;-71
2022/09/25 07:30:16;;;;;;;;;1.67;1.67;;;;;29.31;37.85;100305.34;5036930;28;45313;-69
2022/09/25 07:32:43;;;;;;;;;1.00;1.00;;;;;30.08;34.87;100307.53;5037183;28;45835;-70
2022/09/25 07:35:08;;;;;;;;;0.00;0.00;;;;;30.32;34.67;100305.34;5037114;28;46009;-70
2022/09/25 07:37:34;;;;;;;;;0.00;0.00;;;;;28.49;36.06;100303.97;5037809;28;45453;-70
2022/09/25 07:40:00;;;;;;;;;0.00;0.00;;;;;26.68;39.29;100306.56;5037716;28;45497;-70
2022/09/25 07:42:25;;;;;;;;;0.00;0.00;;;;;25.41;40.75;100291.72;5037284;28;46500;-69
2022/09/25 07:44:51;;;;;;;;;1.00;1.00;;;;;25.01;41.60;100312.63;5044346;28;45399;-70
2022/09/25 07:47:18;;;;;;;;;0.00;0.00;;;;;26.66;39.10;100295.06;5037155;28;45504;-69
2022/09/25 07:49:44;;;;;;;;;0.00;0.00;;;;;27.16;39.19;100286.72;5037362;28;45521;-69
2022/09/25 07:52:09;;;;;;;;;2.00;0.00;;;;;26.77;38.39;100293.69;5036948;28;45552;-71
2022/09/25 07:54:35;;;;;;;;;2.00;1.00;;;;;25.23;41.45;100305.69;5036010;28;45565;-70
2022/09/25 07:57:01;;;;;;;;;0.33;0.33;;;;;23.89;43.81;100300.06;5037087;28;45434;-71
2022/09/25 07:59:26;;;;;;;;;0.67;0.67;;;;;22.86;46.50;100318.75;5036929;28;45467;-71
2022/09/25 08:01:52;;;;;;;;;0.00;0.00;;;;;22.13;48.36;100319.47;5035967;28;46266;-69
2022/09/25 08:04:17;;;;;;;;;1.00;0.00;;;;;21.57;49.46;100317.03;5036279;28;45422;-71
2022/09/25 08:06:43;;;;;;;;;1.00;1.00;;;;;21.11;51.91;100328.47;5034904;28;45470;-71
2022/09/25 08:09:10;;;;;;;;;1.00;1.00;;;;;20.68;53.47;100331.81;5037133;28;45382;-70
2022/09/25 08:11:36;;;;;;;;;0.00;0.00;;;;;20.26;54.02;100326.19;5018619;27;46284;-70
2022/09/25 08:14:02;;;;;;;;;1.00;1.00;;;;;19.93;55.35;100320.38;5061798;28;45470;-71
2022/09/25 08:16:28;;;;;;;;;2.00;2.00;;;;;19.74;55.60;100332.13;5054225;28;45460;-68
2022/09/25 08:18:53;;;;;;;;;0.33;0.33;;;;;19.41;56.50;100332.41;5057477;28;45362;-71
2022/09/25 08:21:20;;;;;;;;;1.33;1.00;;;;;19.14;57.76;100337.94;5056195;28;45900;-69
2022/09/25 08:23:51;;;;;;;;;1.00;0.00;;;;;18.85;59.32;100334.66;5056496;28;45520;-69
2022/09/25 08:26:17;;;;;;;;;2.33;2.33;;;;;18.65;60.27;100360.34;5055224;28;45708;-70
2022/09/25 08:28:43;;;;;;;;;1.33;1.33;;;;;18.35;61.66;100327.88;5056332;28;45423;-72
2022/09/25 08:31:09;;;;;;;;;1.00;1.00;;;;;18.27;61.63;100345.56;5056599;28;45352;-71
2022/09/25 08:33:36;;;;;;;;;1.67;1.67;;;;;18.11;62.31;100359.75;5057191;28;45431;-70
2022/09/25 08:36:03;;;;;;;;;2.33;1.00;;;;;17.88;62.48;100369.47;5039156;28;45549;-70
2022/09/25 08:38:32;;;;;;;;;2.00;2.00;;;;;17.58;63.81;100369.53;5057291;28;45391;-72
2022/09/25 08:41:24;;;;;;;;;1.33;1.33;;;;;17.55;63.21;100391.56;5056846;28;45417;-71
2022/09/25 08:43:51;;;;;;;;;1.67;1.67;;;;;17.16;62.98;100419.69;5056475;28;45419;-72
2022/09/25 08:49:13;;;;;;;;;4.00;4.00;;;;;16.56;65.18;100421.31;5057231;28;45366;-70
2022/09/25 08:51:47;;;;;;;;;4.00;3.33;;;;;16.34;66.53;100428.25;5056844;28;46492;-70
2022/09/25 08:54:28;;;;;;;;;2.33;2.33;;;;;16.31;65.57;100421.19;5056505;28;45412;-71
2022/09/25 08:57:15;;;;;;;;;3.00;3.00;;;;;16.19;66.06;100416.75;5056355;28;45517;-71
2022/09/25 08:59:46;;;;;;;;;1.00;1.00;;;;;16.00;66.29;100405.25;5051312;28;45412;-71
2022/09/25 09:02:19;;;;;;;;;4.00;3.33;;;;;15.69;66.53;100390.97;5042745;28;46508;-71
2022/09/25 09:04:57;;;;;;;;;2.00;2.00;;;;;15.80;68.02;100431.47;5044776;28;45395;-70
2022/09/25 09:07:36;;;;;;;;;2.00;2.00;;;;;15.74;67.29;100423.53;5044665;28;45682;-71
2022/09/25 09:10:23;;;;;;;;;2.00;2.00;;;;;15.86;67.07;100433.25;5045846;28;45664;-71
2022/09/25 09:12:55;;;;;;;;;13.00;11.00;;;;;15.83;68.08;100405.13;5045089;28;46587;-70
2022/09/25 09:15:42;;;;;;;;;4.00;4.00;;;;;16.09;68.75;100425.47;5056136;28;45354;-69
2022/09/25 09:18:26;;;;;;;;;3.00;3.00;;;;;16.28;68.45;100421.19;5056563;28;45324;-71
2022/09/25 09:20:53;;;;;;;;;2.67;2.67;;;;;16.42;68.33;100424.75;5033555;28;45492;-69
2022/09/25 09:23:22;;;;;;;;;2.67;2.67;;;;;16.46;66.94;100404.56;5035398;28;46063;-69
2022/09/25 09:25:58;;;;;;;;;3.00;2.00;;;;;16.77;66.67;100407.28;5035700;28;45464;-70
2022/09/25 09:28:42;;;;;;;;;2.00;2.00;;;;;17.20;66.98;100416.19;5018371;28;45442;-71
2022/09/25 09:31:40;;;;;;;;;3.00;3.00;;;;;17.68;65.57;100422.31;5048752;28;45402;-70
2022/09/25 09:34:41;;;;;;;;;2.33;2.33;;;;;18.14;63.84;100412.59;5054204;28;47808;-71
2022/09/25 09:37:48;;;;;;;;;4.00;3.00;;;;;18.54;63.56;100410.66;5013030;28;45535;-70
2022/09/25 09:40:54;;;;;;;;;2.00;2.00;;;;;19.09;60.93;100420.06;5017074;28;45463;-68
2022/09/25 09:43:35;;;;;;;;;3.67;3.33;;;;;19.48;60.08;100424.19;5055014;28;45459;-69
2022/09/25 09:46:27;;;;;;;;;5.00;4.00;;;;;19.91;59.16;100414.97;5053327;28;46101;-69
2022/09/25 09:49:04;;;;;;;;;1.67;1.67;;;;;20.18;58.35;100402.31;5043044;28;45595;-71
2022/09/25 09:52:07;;;;;;;;;1.67;1.67;;;;;20.16;57.75;100382.91;5055123;28;45596;-68
2022/09/25 09:54:56;;;;;;;;;2.00;2.00;;;;;20.69;57.54;100415.84;5051090;28;45504;-71
2022/09/25 09:57:26;;;;;;;;;4.67;4.00;;;;;20.90;56.65;100390.75;5055870;28;45672;-70
2022/09/25 09:59:55;;;;;;;;;2.33;1.67;;;;;20.72;55.59;100325.53;5056096;28;45330;-71
2022/09/25 10:02:36;;;;;;;;;1.67;1.67;;;;;20.80;54.66;100397.97;5055756;28;45500;-69
2022/09/25 10:05:29;;;;;;;;;1.33;1.00;;;;;20.89;55.40;100386.38;5053257;28;45557;-71
2022/09/25 10:07:54;;;;;;;;;1.00;1.00;;;;;21.07;54.33;100369.28;5043102;28;45334;-71
2022/09/25 10:10:23;;;;;;;;;0.00;0.00;;;;;21.21;53.38;100353.97;5054364;28;45392;-70
2022/09/25 10:12:53;;;;;;;;;1.00;1.00;;;;;21.44;52.93;100358.03;5054839;28;45464;-69
2022/09/25 10:15:22;;;;;;;;;1.00;1.00;;;;;21.84;52.53;100373.25;5051535;28;45499;-69
2022/09/25 10:17:48;;;;;;;;;1.00;1.00;;;;;22.23;51.55;100349.41;5055508;28;46233;-70
2022/09/25 10:20:18;;;;;;;;;1.00;1.00;;;;;22.66;50.40;100364.50;5054839;28;45487;-69
2022/09/25 10:22:46;;;;;;;;;2.00;1.00;;;;;22.67;50.02;100344.94;5053635;28;45631;-70
2022/09/25 10:25:11;;;;;;;;;0.33;0.33;;;;;23.20;49.15;100356.09;5054049;28;45923;-71
2022/09/25 10:27:40;;;;;;;;;2.00;1.00;;;;;23.39;48.45;100352.97;5055122;28;45524;-73
2022/09/25 10:30:09;;;;;;;;;2.67;2.00;;;;;23.15;48.19;100359.81;5053288;28;45330;-72
2022/09/25 10:32:46;;;;;;;;;1.00;1.00;;;;;23.31;47.70;100347.81;5046392;28;45363;-71
2022/09/25 10:35:15;;;;;;;;;0.33;0.33;;;;;23.50;47.11;100331.38;5047305;28;45593;-71
2022/09/25 10:37:41;;;;;;;;;1.00;1.00;;;;;23.67;46.38;100333.56;5045365;28;46115;-70
2022/09/25 10:40:22;;;;;;;;;0.67;0.67;;;;;23.70;45.96;100338.84;5029434;28;45474;-72
2022/09/25 10:42:48;;;;;;;;;2.00;2.00;;;;;23.56;46.64;100323.22;5056255;28;45764;-72
2022/09/25 10:45:29;;;;;;;;;0.00;0.00;;;;;23.55;46.03;100345.44;5038337;28;45358;-70
2022/09/25 10:50:41;;;;;;;;;5.00;4.33;;;;;23.51;46.75;100330.44;5058549;28;45328;-71
2022/09/25 10:53:27;;;;;;;;;0.33;0.33;;;;;23.45;44.69;100307.47;5059977;28;45489;-69
2022/09/25 10:56:00;;;;;;;;;1.00;1.00;;;;;23.52;46.85;100338.41;5059985;28;45249;-72
2022/09/25 10:58:38;;;;;;;;;1.00;1.00;;;;;23.31;45.96;100336.31;5059494;28;45419;-71
2022/09/25 11:01:06;;;;;;;;;3.00;3.00;;;;;23.03;47.43;100332.53;5059652;28;45433;-72
2022/09/25 11:03:39;;;;;;;;;1.00;1.00;;;;;23.14;48.41;100331.38;5059620;28;45524;-72
2022/09/25 11:06:28;;;;;;;;;2.00;1.00;;;;;23.22;46.93;100340.97;5060076;28;45379;-72
2022/09/25 11:09:11;;;;;;;;;1.00;1.00;;;;;23.14;47.36;100358.94;5041168;28;45351;-71
2022/09/25 11:11:39;;;;;;;;;1.00;1.00;;;;;22.77;46.15;100334.94;5059135;28;45367;-72
2022/09/25 11:14:18;;;;;;;;;1.00;1.00;;;;;22.77;46.57;100343.78;5041482;28;45244;-72
2022/09/25 11:16:47;;;;;;;;;1.00;0.67;;;;;22.80;47.20;100350.81;5060057;28;45356;-72
2022/09/25 11:19:22;;;;;;;;;1.00;0.00;;;;;22.89;47.88;100355.94;5059729;28;45604;-72
2022/09/25 11:22:22;;;;;;;;;1.00;1.00;;;;;22.92;47.13;100352.31;5059364;28;45549;-72
2022/09/25 11:24:57;;;;;;;;;0.00;0.00;;;;;23.00;44.91;100347.72;5059405;28;45386;-72
2022/09/25 11:27:35;;;;;;;;;1.00;1.00;;;;;22.97;44.48;100355.75;5059594;28;45379;-71
2022/09/25 11:30:15;;;;;;;;;0.00;0.00;;;;;22.76;41.22;100320.75;5059291;28;45281;-72
2022/09/25 11:32:44;;;;;;;;;0.00;0.00;;;;;22.92;43.10;100355.00;5041488;28;45531;-72
2022/09/25 11:35:35;;;;;;;;;0.00;0.00;;;;;22.69;43.88;100352.88;5059284;28;45549;-71
2022/09/25 11:38:16;;;;;;;;;1.00;1.00;;;;;22.73;46.28;100344.78;5059144;28;45314;-70
2022/09/25 11:41:15;;;;;;;;;1.00;1.00;;;;;22.86;47.34;100349.81;5041409;28;45554;-71
2022/09/25 11:44:01;;;;;;;;;0.00;0.00;;;;;22.78;46.39;100345.56;5059091;28;45524;-72
2022/09/25 11:46:49;;;;;;;;;0.00;0.00;;;;;22.61;46.37;100340.63;5059148;28;45468;-71
2022/09/25 11:49:47;;;;;;;;;1.00;1.00;;;;;22.61;45.90;100340.63;5059682;28;45209;-72
2022/09/25 11:52:27;;;;;;;;;0.67;0.00;;;;;22.90;45.33;100332.84;5043253;28;45510;-72
2022/09/25 11:55:07;;;;;;;;;1.00;1.00;;;;;22.87;44.13;100332.94;5058782;28;45327;-70
2022/09/25 11:57:52;;;;;;;;;1.00;1.00;;;;;23.05;45.51;100334.31;5040772;28;45362;-69
2022/09/25 12:00:40;;;;;;;;;1.00;1.00;;;;;23.29;44.61;100327.47;5059327;28;45528;-70
2022/09/25 12:03:08;;;;;;;;;1.67;1.00;;;;;23.53;45.84;100324.16;5039276;28;46793;-72